Time;durP1;ratioP1;P1;durP2;ratioP2;P2;SDS_P1;SDS_P2;PMS_P1;PMS_P2;Temp;Humidity;BMP_temperature;BMP_pressure;BME280_temperature;BME280_humidity;BME280_pressure;Samples;Min_cycle;Max_cycle;Signal;HPM_P1;HPM_P2
2023/03/09 00:01:46;;;;;;;;;;;2.90;99.90;;;;;;5105743;28;19976;-76
2023/03/09 00:04:15;;;;;;;;;;;3.00;99.90;;;;;;5088102;28;19916;-76
2023/03/09 00:06:41;;;;;;;;;;;3.00;99.90;;;;;;5088048;28;20380;-76
2023/03/09 00:09:07;;;;;;;;;;;2.90;99.90;;;;;;5090903;28;19908;-76
2023/03/09 00:11:33;;;;;;;;;;;2.90;99.90;;;;;;5096113;28;20000;-76
2023/03/09 00:13:58;;;;;;;;;;;3.00;99.90;;;;;;5090402;28;19940;-76
2023/03/09 00:16:25;;;;;;;;;;;2.90;99.90;;;;;;5090326;28;20292;-76
2023/03/09 00:18:51;;;;;;;;;;;2.90;99.90;;;;;;5090566;28;19927;-76
2023/03/09 00:21:34;;;;;;;;;;;2.90;99.90;;;;;;5090606;28;20030;-76
2023/03/09 00:24:13;;;;;;;;;;;3.00;99.90;;;;;;5102204;28;19908;-76
2023/03/09 00:26:40;;;;;;;;;;;2.90;99.90;;;;;;5110959;28;20007;-75
2023/03/09 00:29:07;;;;;;;;;;;2.90;99.90;;;;;;5110845;28;19973;-75
2023/03/09 00:31:32;;;;;;;;;;;3.00;99.90;;;;;;5110379;28;19918;-75
2023/03/09 00:33:58;;;;;;;;;;;2.90;99.90;;;;;;5109206;28;19911;-75
2023/03/09 00:36:24;;;;;;;;;;;2.90;99.90;;;;;;5110991;28;19920;-76
2023/03/09 00:38:51;;;;;;;;;;;2.90;99.90;;;;;;5104543;28;19939;-75
2023/03/09 00:41:17;;;;;;;;;;;3.00;99.90;;;;;;5090586;28;19958;-76
2023/03/09 00:43:42;;;;;;;;;;;3.00;99.90;;;;;;5090854;28;19954;-75
2023/03/09 00:46:08;;;;;;;;;;;2.90;99.90;;;;;;5090027;28;19959;-76
2023/03/09 00:48:35;;;;;;;;;;;2.90;99.90;;;;;;5089967;28;20300;-75
2023/03/09 00:51:01;;;;;;;;;;;2.90;99.90;;;;;;5090441;28;20428;-75
2023/03/09 00:53:26;;;;;;;;;;;2.90;99.90;;;;;;5097002;28;20002;-76
2023/03/09 00:55:52;;;;;;;;;;;2.90;99.90;;;;;;5110727;28;19911;-75
2023/03/09 00:58:17;;;;;;;;;;;2.90;99.90;;;;;;5110277;28;20446;-75
2023/03/09 01:00:43;;;;;;;;;;;2.90;99.90;;;;;;5109846;27;19908;-76
2023/03/09 01:03:08;;;;;;;;;;;2.90;99.90;;;;;;5092611;28;19912;-75
2023/03/09 01:05:34;;;;;;;;;;;2.90;99.90;;;;;;5089689;28;20310;-75
2023/03/09 01:07:59;;;;;;;;;;;2.90;99.90;;;;;;5089874;28;19954;-75
2023/03/09 01:10:24;;;;;;;;;;;2.90;99.90;;;;;;5096588;28;19908;-76
2023/03/09 01:12:50;;;;;;;;;;;2.90;99.90;;;;;;5091951;28;19923;-75
2023/03/09 01:15:15;;;;;;;;;;;2.90;99.90;;;;;;5089321;28;19966;-75
2023/03/09 01:17:42;;;;;;;;;;;2.90;99.90;;;;;;5089266;28;20015;-75
2023/03/09 01:20:08;;;;;;;;;;;2.90;99.90;;;;;;5093856;28;19919;-75
2023/03/09 01:22:34;;;;;;;;;;;2.90;99.90;;;;;;5101903;28;19912;-75
2023/03/09 01:24:59;;;;;;;;;;;2.90;99.90;;;;;;5109822;28;19960;-76
2023/03/09 01:27:25;;;;;;;;;;;2.90;99.90;;;;;;5109687;28;20018;-75
2023/03/09 01:29:50;;;;;;;;;;;2.90;99.90;;;;;;5108476;28;19916;-75
2023/03/09 01:32:16;;;;;;;;;;;2.90;99.90;;;;;;5109752;28;19915;-75
2023/03/09 01:34:41;;;;;;;;;;;2.90;99.90;;;;;;5108065;28;19989;-75
2023/03/09 01:37:07;;;;;;;;;;;2.90;99.90;;;;;;5109611;28;20004;-75
2023/03/09 01:39:32;;;;;;;;;;;2.90;99.90;;;;;;5099108;28;20524;-75
2023/03/09 01:41:58;;;;;;;;;;;2.90;99.90;;;;;;5097701;28;20361;-75
2023/03/09 01:44:23;;;;;;;;;;;2.90;99.90;;;;;;5089077;28;19977;-76
2023/03/09 01:46:49;;;;;;;;;;;2.90;99.90;;;;;;5089435;28;19920;-75
2023/03/09 01:49:17;;;;;;;;;;;2.90;99.90;;;;;;5089042;28;19923;-75
2023/03/09 01:51:46;;;;;;;;;;;2.90;99.90;;;;;;5105101;28;19954;-75
2023/03/09 01:54:16;;;;;;;;;;;2.90;99.90;;;;;;5102419;28;19908;-75
2023/03/09 01:56:42;;;;;;;;;;;2.90;99.90;;;;;;5109428;28;19908;-75
2023/03/09 01:59:09;;;;;;;;;;;2.90;99.90;;;;;;5109046;28;20348;-75
2023/03/09 02:01:36;;;;;;;;;;;2.90;99.90;;;;;;5107742;28;19984;-75
2023/03/09 02:04:04;;;;;;;;;;;2.90;99.90;;;;;;5087765;28;20542;-75
2023/03/09 02:06:30;;;;;;;;;;;2.90;99.90;;;;;;5088635;28;19916;-75
2023/03/09 02:09:08;;;;;;;;;;;2.90;99.90;;;;;;5094780;28;19912;-75
2023/03/09 02:11:34;;;;;;;;;;;2.90;99.90;;;;;;5101944;28;20028;-75
2023/03/09 02:14:00;;;;;;;;;;;2.90;99.90;;;;;;5088380;28;20002;-75
2023/03/09 02:16:25;;;;;;;;;;;2.90;99.90;;;;;;5087396;28;20258;-75
2023/03/09 02:18:51;;;;;;;;;;;2.90;99.90;;;;;;5094116;28;19923;-75
2023/03/09 02:21:16;;;;;;;;;;;2.90;99.90;;;;;;5088528;28;20030;-75
2023/03/09 02:23:56;;;;;;;;;;;2.90;99.90;;;;;;5088423;28;19996;-75
2023/03/09 02:26:28;;;;;;;;;;;2.90;99.90;;;;;;5088675;28;20435;-75
2023/03/09 02:28:53;;;;;;;;;;;2.90;99.90;;;;;;5093961;28;19925;-75
2023/03/09 02:31:20;;;;;;;;;;;2.90;99.90;;;;;;5108074;28;20351;-75
2023/03/09 02:33:45;;;;;;;;;;;2.90;99.90;;;;;;5090143;28;20372;-76
2023/03/09 02:36:11;;;;;;;;;;;2.90;99.90;;;;;;5088522;28;19912;-75
2023/03/09 02:38:37;;;;;;;;;;;2.90;99.90;;;;;;5088296;28;19916;-74
2023/03/09 02:41:03;;;;;;;;;;;2.90;99.90;;;;;;5085766;28;20365;-75
2023/03/09 02:43:55;;;;;;;;;;;2.90;99.90;;;;;;5067980;28;20003;-75
2023/03/09 02:46:20;;;;;;;;;;;2.90;99.90;;;;;;5065952;28;20433;-75
2023/03/09 02:48:46;;;;;;;;;;;2.90;99.90;;;;;;5076669;28;19922;-75
2023/03/09 02:51:12;;;;;;;;;;;2.90;99.90;;;;;;5108524;28;19922;-75
2023/03/09 02:53:37;;;;;;;;;;;2.90;99.90;;;;;;5100493;28;20306;-75
2023/03/09 02:56:03;;;;;;;;;;;2.90;99.90;;;;;;5083254;28;19923;-75
2023/03/09 02:58:28;;;;;;;;;;;2.90;99.90;;;;;;5071423;28;19913;-76
2023/03/09 03:00:54;;;;;;;;;;;2.90;99.90;;;;;;5082623;28;19997;-75
2023/03/09 03:03:20;;;;;;;;;;;2.90;99.90;;;;;;5083957;28;20007;-75
2023/03/09 03:05:46;;;;;;;;;;;2.90;99.90;;;;;;5089003;28;20549;-76
2023/03/09 03:08:12;;;;;;;;;;;2.90;99.90;;;;;;5081047;28;19912;-75
2023/03/09 03:10:37;;;;;;;;;;;2.90;99.90;;;;;;5087701;28;20284;-75
2023/03/09 03:13:03;;;;;;;;;;;2.90;99.90;;;;;;5068326;28;19990;-75
2023/03/09 03:15:28;;;;;;;;;;;2.90;99.90;;;;;;5067984;28;19991;-75
2023/03/09 03:17:54;;;;;;;;;;;2.90;99.90;;;;;;5106398;28;19920;-76
2023/03/09 03:20:19;;;;;;;;;;;2.90;99.90;;;;;;5101718;28;20012;-76
2023/03/09 03:22:45;;;;;;;;;;;2.90;99.90;;;;;;5089240;28;19997;-75
2023/03/09 03:25:11;;;;;;;;;;;2.80;99.90;;;;;;5106542;28;19980;-76
2023/03/09 03:27:37;;;;;;;;;;;2.90;99.90;;;;;;5107265;28;19939;-75
2023/03/09 03:30:03;;;;;;;;;;;2.90;99.90;;;;;;5108339;28;20518;-75
2023/03/09 03:32:28;;;;;;;;;;;2.90;99.90;;;;;;5108391;28;19947;-74
2023/03/09 03:34:54;;;;;;;;;;;2.80;99.90;;;;;;5108062;28;20028;-76
2023/03/09 03:37:19;;;;;;;;;;;2.90;99.90;;;;;;5094330;28;20391;-76
2023/03/09 03:39:45;;;;;;;;;;;2.90;99.90;;;;;;5087919;28;19920;-75
2023/03/09 03:42:10;;;;;;;;;;;2.90;99.90;;;;;;5076077;28;20269;-75
2023/03/09 03:44:35;;;;;;;;;;;2.90;99.90;;;;;;5103570;28;19999;-75
2023/03/09 03:47:01;;;;;;;;;;;2.90;99.90;;;;;;5092852;28;19912;-75
2023/03/09 03:49:27;;;;;;;;;;;2.90;99.90;;;;;;5110478;28;19915;-75
2023/03/09 03:51:52;;;;;;;;;;;2.90;99.90;;;;;;5096807;28;19944;-75
2023/03/09 03:54:18;;;;;;;;;;;2.90;99.90;;;;;;5102571;28;19919;-75
2023/03/09 03:56:43;;;;;;;;;;;2.90;99.90;;;;;;5110837;28;19912;-74
2023/03/09 03:59:10;;;;;;;;;;;2.90;99.90;;;;;;5111668;28;19918;-75
2023/03/09 04:01:35;;;;;;;;;;;2.90;99.90;;;;;;5111646;28;20402;-75
2023/03/09 04:04:01;;;;;;;;;;;2.90;99.90;;;;;;5111286;28;19908;-76
2023/03/09 04:06:27;;;;;;;;;;;2.90;99.90;;;;;;5105742;28;19920;-75
2023/03/09 04:08:52;;;;;;;;;;;2.90;99.90;;;;;;5090884;28;19923;-75
2023/03/09 04:11:18;;;;;;;;;;;2.90;99.90;;;;;;5090467;28;20886;-76
2023/03/09 04:13:46;;;;;;;;;;;2.90;99.90;;;;;;5090625;28;20357;-75
2023/03/09 04:16:11;;;;;;;;;;;2.90;99.90;;;;;;5089163;28;20054;-75
2023/03/09 04:18:37;;;;;;;;;;;2.80;99.90;;;;;;5077766;28;21075;-75
2023/03/09 04:21:02;;;;;;;;;;;2.90;99.90;;;;;;5087791;28;19916;-76
2023/03/09 04:23:28;;;;;;;;;;;2.90;99.90;;;;;;5096301;28;19915;-76
2023/03/09 04:25:57;;;;;;;;;;;2.90;99.90;;;;;;5097288;28;20273;-75
2023/03/09 04:28:23;;;;;;;;;;;2.90;99.90;;;;;;5076998;28;19916;-76
2023/03/09 04:30:48;;;;;;;;;;;2.90;99.90;;;;;;5090631;28;20590;-76
2023/03/09 04:33:14;;;;;;;;;;;2.90;99.90;;;;;;5090344;28;20285;-76
2023/03/09 04:35:42;;;;;;;;;;;2.90;99.90;;;;;;5090242;28;19927;-75
2023/03/09 04:38:08;;;;;;;;;;;2.80;99.90;;;;;;5094719;28;19916;-75
2023/03/09 04:40:34;;;;;;;;;;;2.90;99.90;;;;;;5090140;28;19936;-75
2023/03/09 04:43:00;;;;;;;;;;;2.90;99.90;;;;;;5071337;28;19909;-75
2023/03/09 04:45:26;;;;;;;;;;;2.90;99.90;;;;;;5069784;28;19919;-75
2023/03/09 04:47:51;;;;;;;;;;;2.90;99.90;;;;;;5087049;28;19937;-75
2023/03/09 04:50:17;;;;;;;;;;;2.90;99.90;;;;;;5090122;28;20109;-75
2023/03/09 04:52:42;;;;;;;;;;;2.90;99.90;;;;;;5090865;28;19912;-75
2023/03/09 04:55:08;;;;;;;;;;;2.80;99.90;;;;;;5110625;28;19907;-75
2023/03/09 04:57:34;;;;;;;;;;;2.90;99.90;;;;;;5110252;28;20246;-75
2023/03/09 04:59:59;;;;;;;;;;;2.90;99.90;;;;;;5110573;28;19915;-75
2023/03/09 05:02:28;;;;;;;;;;;2.80;99.90;;;;;;5110446;28;19915;-75
2023/03/09 05:04:54;;;;;;;;;;;2.90;99.90;;;;;;5110133;28;19908;-75
2023/03/09 05:07:19;;;;;;;;;;;2.80;99.90;;;;;;5099560;27;19923;-75
2023/03/09 05:09:45;;;;;;;;;;;2.90;99.90;;;;;;5089652;28;19947;-75
2023/03/09 05:12:10;;;;;;;;;;;2.90;99.90;;;;;;5076259;28;19919;-75
2023/03/09 05:14:36;;;;;;;;;;;2.80;99.90;;;;;;5075125;28;19908;-75
2023/03/09 05:17:01;;;;;;;;;;;2.80;99.90;;;;;;5097219;28;19923;-74
2023/03/09 05:19:27;;;;;;;;;;;2.90;99.90;;;;;;5091114;28;19920;-75
2023/03/09 05:21:52;;;;;;;;;;;2.80;99.90;;;;;;5089779;28;20405;-75
2023/03/09 05:24:18;;;;;;;;;;;2.80;99.90;;;;;;5103714;28;19912;-75
2023/03/09 05:26:43;;;;;;;;;;;2.90;99.90;;;;;;5108692;28;19912;-75
2023/03/09 05:29:09;;;;;;;;;;;2.80;99.90;;;;;;5109130;28;19915;-75
2023/03/09 05:31:34;;;;;;;;;;;2.80;99.90;;;;;;5108638;28;20410;-75
2023/03/09 05:34:00;;;;;;;;;;;2.80;99.90;;;;;;5109191;28;20003;-75
2023/03/09 05:36:26;;;;;;;;;;;2.80;99.90;;;;;;5109568;28;19918;-75
2023/03/09 05:38:52;;;;;;;;;;;2.80;99.90;;;;;;5097152;28;19912;-74
2023/03/09 05:41:18;;;;;;;;;;;2.90;99.90;;;;;;5084436;28;19919;-75
2023/03/09 05:43:43;;;;;;;;;;;2.90;99.90;;;;;;5068766;28;19914;-75
2023/03/09 05:46:09;;;;;;;;;;;2.80;99.90;;;;;;5069144;28;19917;-75
2023/03/09 05:48:35;;;;;;;;;;;2.80;99.90;;;;;;5088752;28;19920;-75
2023/03/09 05:51:01;;;;;;;;;;;2.80;99.90;;;;;;5101824;28;20010;-74
2023/03/09 05:53:26;;;;;;;;;;;2.80;99.90;;;;;;5096064;28;20605;-74
2023/03/09 05:55:52;;;;;;;;;;;2.90;99.90;;;;;;5109591;28;19912;-75
2023/03/09 05:58:18;;;;;;;;;;;2.80;99.90;;;;;;5108855;28;19916;-75
2023/03/09 06:00:44;;;;;;;;;;;2.80;99.90;;;;;;5107760;28;20011;-75
2023/03/09 06:03:09;;;;;;;;;;;2.80;99.90;;;;;;5109132;28;19938;-75
2023/03/09 06:05:35;;;;;;;;;;;2.90;99.90;;;;;;5108597;28;19915;-74
2023/03/09 06:08:00;;;;;;;;;;;2.80;99.90;;;;;;5104112;28;20389;-75
2023/03/09 06:10:26;;;;;;;;;;;2.80;99.90;;;;;;5088637;28;19912;-75
2023/03/09 06:12:51;;;;;;;;;;;2.80;99.90;;;;;;5070738;28;20352;-74
2023/03/09 06:15:17;;;;;;;;;;;2.90;99.90;;;;;;5086647;28;19912;-75
2023/03/09 06:17:42;;;;;;;;;;;2.80;99.90;;;;;;5090061;28;19942;-74
2023/03/09 06:20:08;;;;;;;;;;;2.80;99.90;;;;;;5107474;28;19922;-74
2023/03/09 06:22:34;;;;;;;;;;;2.90;99.90;;;;;;5098064;28;19908;-75
2023/03/09 06:24:59;;;;;;;;;;;2.90;99.90;;;;;;5088366;28;19912;-74
2023/03/09 06:27:25;;;;;;;;;;;2.80;99.90;;;;;;5087033;28;19935;-74
2023/03/09 06:29:52;;;;;;;;;;;2.80;99.90;;;;;;5088444;28;19912;-75
2023/03/09 06:32:17;;;;;;;;;;;2.80;99.90;;;;;;5095799;28;20420;-75
2023/03/09 06:34:43;;;;;;;;;;;2.80;99.90;;;;;;5108640;28;19968;-75
2023/03/09 06:37:08;;;;;;;;;;;2.90;99.90;;;;;;5108959;28;19912;-75
2023/03/09 06:39:34;;;;;;;;;;;2.90;99.90;;;;;;5097443;28;20531;-75
2023/03/09 06:41:59;;;;;;;;;;;2.90;99.90;;;;;;5086479;28;20257;-75
2023/03/09 06:44:25;;;;;;;;;;;2.90;99.90;;;;;;5108299;28;20391;-74
2023/03/09 06:46:50;;;;;;;;;;;2.90;99.90;;;;;;5108604;28;20018;-75
2023/03/09 06:49:16;;;;;;;;;;;2.80;99.90;;;;;;5108433;28;20000;-75
2023/03/09 06:51:42;;;;;;;;;;;2.80;99.90;;;;;;5096758;28;19919;-75
2023/03/09 06:54:07;;;;;;;;;;;2.90;99.90;;;;;;5100765;28;19922;-75
2023/03/09 06:56:33;;;;;;;;;;;2.90;99.90;;;;;;5108734;28;20640;-75
2023/03/09 06:58:58;;;;;;;;;;;2.90;99.90;;;;;;5108506;28;19957;-75
2023/03/09 07:01:24;;;;;;;;;;;2.90;99.90;;;;;;5108541;28;20383;-75
2023/03/09 07:03:49;;;;;;;;;;;2.90;99.90;;;;;;5107516;28;19911;-75
2023/03/09 07:06:15;;;;;;;;;;;2.90;99.90;;;;;;5108575;28;19926;-75
2023/03/09 07:08:40;;;;;;;;;;;2.90;99.90;;;;;;5104575;28;20066;-75
2023/03/09 07:11:06;;;;;;;;;;;2.90;99.90;;;;;;5084813;28;19916;-75
2023/03/09 07:13:32;;;;;;;;;;;2.90;99.90;;;;;;5116304;28;19915;-76
2023/03/09 07:16:00;;;;;;;;;;;3.00;99.90;;;;;;5087679;28;19916;-75
2023/03/09 07:18:26;;;;;;;;;;;3.00;99.90;;;;;;5091837;28;19951;-74
2023/03/09 07:20:51;;;;;;;;;;;3.00;99.90;;;;;;5092109;28;19962;-75
2023/03/09 07:23:17;;;;;;;;;;;3.00;99.90;;;;;;5097968;28;19929;-75
2023/03/09 07:25:42;;;;;;;;;;;3.00;99.90;;;;;;5112159;27;19912;-74
2023/03/09 07:28:08;;;;;;;;;;;3.00;99.90;;;;;;5112532;28;19911;-75
2023/03/09 07:30:33;;;;;;;;;;;3.10;99.90;;;;;;5112432;28;19912;-75
2023/03/09 07:32:59;;;;;;;;;;;3.00;99.90;;;;;;5111866;28;20273;-75
2023/03/09 07:35:25;;;;;;;;;;;3.10;99.90;;;;;;5111911;28;19912;-75
2023/03/09 07:37:51;;;;;;;;;;;3.10;99.90;;;;;;5112182;28;20002;-75
2023/03/09 07:40:17;;;;;;;;;;;3.10;99.90;;;;;;5094626;28;20042;-74
2023/03/09 07:42:42;;;;;;;;;;;3.10;99.90;;;;;;5093233;28;19998;-74
2023/03/09 07:45:08;;;;;;;;;;;3.10;99.90;;;;;;5111901;28;19912;-75
2023/03/09 07:47:33;;;;;;;;;;;3.10;99.90;;;;;;5111911;28;19955;-75
2023/03/09 07:49:59;;;;;;;;;;;3.10;99.90;;;;;;5111801;28;19912;-75
2023/03/09 07:52:30;;;;;;;;;;;3.10;99.90;;;;;;5092544;28;19923;-74
2023/03/09 07:54:59;;;;;;;;;;;3.10;99.90;;;;;;5109667;28;19934;-74
2023/03/09 07:57:29;;;;;;;;;;;3.10;99.90;;;;;;5112026;28;19957;-74
2023/03/09 07:59:54;;;;;;;;;;;3.10;99.90;;;;;;5111786;28;19912;-74
2023/03/09 08:02:20;;;;;;;;;;;3.10;99.90;;;;;;5110976;28;19923;-75
2023/03/09 08:04:46;;;;;;;;;;;3.10;99.90;;;;;;5111260;28;19912;-75
2023/03/09 08:07:11;;;;;;;;;;;3.10;99.90;;;;;;5111693;28;19956;-75
2023/03/09 08:09:37;;;;;;;;;;;3.10;99.90;;;;;;5099947;27;19911;-75
2023/03/09 08:12:03;;;;;;;;;;;3.10;99.90;;;;;;5084931;28;20041;-75
2023/03/09 08:14:28;;;;;;;;;;;3.10;99.90;;;;;;5098172;28;19961;-74
2023/03/09 08:16:54;;;;;;;;;;;3.20;99.90;;;;;;5092567;28;19923;-74
2023/03/09 08:19:21;;;;;;;;;;;3.10;99.90;;;;;;5090830;28;19912;-74
2023/03/09 08:21:50;;;;;;;;;;;3.20;99.90;;;;;;5090777;28;19944;-76
2023/03/09 08:24:16;;;;;;;;;;;3.20;99.90;;;;;;5104704;28;20593;-75
2023/03/09 08:26:42;;;;;;;;;;;3.20;99.90;;;;;;5110635;28;19942;-75
2023/03/09 08:29:07;;;;;;;;;;;3.20;99.90;;;;;;5108404;28;20394;-74
2023/03/09 08:31:34;;;;;;;;;;;3.20;99.90;;;;;;5111037;28;19912;-75
2023/03/09 08:33:59;;;;;;;;;;;3.30;99.90;;;;;;5110650;28;19970;-74
2023/03/09 08:36:25;;;;;;;;;;;3.30;99.90;;;;;;5099853;28;20380;-75
2023/03/09 08:38:51;;;;;;;;;;;3.30;99.90;;;;;;5090545;28;19912;-75
2023/03/09 08:41:17;;;;;;;;;;;3.30;99.90;;;;;;5085790;28;19951;-75
2023/03/09 08:43:43;;;;;;;;;;;3.30;99.90;;;;;;5116538;27;19916;-75
2023/03/09 08:46:08;;;;;;;;;;;3.30;99.90;;;;;;5090350;28;20437;-75
2023/03/09 08:48:34;;;;;;;;;;;3.30;99.90;;;;;;5090282;28;19951;-75
2023/03/09 08:51:00;;;;;;;;;;;3.30;99.90;;;;;;5083392;28;20381;-75
2023/03/09 08:53:26;;;;;;;;;;;3.30;99.90;;;;;;5095019;28;20531;-74
2023/03/09 08:55:51;;;;;;;;;;;3.40;99.90;;;;;;5110906;28;19911;-75
2023/03/09 08:58:17;;;;;;;;;;;3.40;99.90;;;;;;5110517;28;19911;-75
2023/03/09 09:00:42;;;;;;;;;;;3.40;99.90;;;;;;5110566;28;19916;-74
2023/03/09 09:03:08;;;;;;;;;;;3.40;99.90;;;;;;5109903;28;19940;-74
2023/03/09 09:05:34;;;;;;;;;;;3.40;99.90;;;;;;5110050;28;20270;-74
2023/03/09 09:07:59;;;;;;;;;;;3.40;99.90;;;;;;5109218;28;19916;-74
2023/03/09 09:10:25;;;;;;;;;;;3.40;99.90;;;;;;5091963;28;20403;-74
2023/03/09 09:12:51;;;;;;;;;;;3.40;99.90;;;;;;5081930;28;20630;-74
2023/03/09 09:15:16;;;;;;;;;;;3.40;99.90;;;;;;5090333;28;19919;-75
2023/03/09 09:17:42;;;;;;;;;;;3.40;99.90;;;;;;5089418;28;19920;-74
2023/03/09 09:20:08;;;;;;;;;;;3.40;99.90;;;;;;5089575;28;20391;-74
2023/03/09 09:22:34;;;;;;;;;;;3.50;99.90;;;;;;5090481;28;19916;-75
2023/03/09 09:24:59;;;;;;;;;;;3.40;99.90;;;;;;5109616;28;19912;-74
2023/03/09 09:27:25;;;;;;;;;;;3.50;99.90;;;;;;5109916;28;19915;-74
2023/03/09 09:29:52;;;;;;;;;;;3.50;99.90;;;;;;5109954;28;19912;-74
2023/03/09 09:32:18;;;;;;;;;;;3.50;99.90;;;;;;5109490;28;19935;-76
2023/03/09 09:34:44;;;;;;;;;;;3.50;99.90;;;;;;5109579;28;20324;-74
2023/03/09 09:37:11;;;;;;;;;;;3.50;99.90;;;;;;5110061;28;19994;-74
2023/03/09 09:39:37;;;;;;;;;;;3.50;99.90;;;;;;5097748;28;20273;-74
2023/03/09 09:42:04;;;;;;;;;;;3.50;99.90;;;;;;5078404;28;19924;-74
2023/03/09 09:44:42;;;;;;;;;;;3.50;99.90;;;;;;5106539;28;20353;-75
2023/03/09 09:47:12;;;;;;;;;;;3.60;99.90;;;;;;5109685;28;19915;-74
2023/03/09 09:49:45;;;;;;;;;;;3.50;99.90;;;;;;5109532;28;19993;-75
2023/03/09 09:52:23;;;;;;;;;;;3.60;99.90;;;;;;5092762;28;19912;-74
2023/03/09 09:54:51;;;;;;;;;;;3.60;99.90;;;;;;5106178;28;19916;-74
2023/03/09 09:57:22;;;;;;;;;;;3.60;99.90;;;;;;5109504;28;19976;-75
2023/03/09 09:59:52;;;;;;;;;;;3.70;99.90;;;;;;5109449;28;20651;-75
2023/03/09 10:02:22;;;;;;;;;;;3.70;99.90;;;;;;5109430;28;20284;-75
2023/03/09 10:04:58;;;;;;;;;;;3.70;99.90;;;;;;5068348;28;19969;-75
2023/03/09 10:07:24;;;;;;;;;;;3.70;99.90;;;;;;5075441;28;20003;-74
2023/03/09 10:09:52;;;;;;;;;;;3.70;99.90;;;;;;5094409;28;20511;-74
2023/03/09 10:12:18;;;;;;;;;;;3.70;99.90;;;;;;5075696;28;19919;-74
2023/03/09 10:14:49;;;;;;;;;;;3.80;99.90;;;;;;5075079;28;19908;-75
2023/03/09 10:17:18;;;;;;;;;;;3.80;99.90;;;;;;5082741;28;20407;-75
2023/03/09 10:19:46;;;;;;;;;;;3.80;99.90;;;;;;5076402;28;20027;-75
2023/03/09 10:22:16;;;;;;;;;;;3.80;99.90;;;;;;5084336;28;19938;-75
2023/03/09 10:24:43;;;;;;;;;;;3.80;99.90;;;;;;5089262;28;19935;-75
2023/03/09 10:27:11;;;;;;;;;;;3.80;99.90;;;;;;5097430;28;20003;-75
2023/03/09 10:29:39;;;;;;;;;;;3.80;99.90;;;;;;5088791;28;19965;-75
2023/03/09 10:32:11;;;;;;;;;;;3.80;99.90;;;;;;5088494;28;20014;-76
2023/03/09 10:34:51;;;;;;;;;;;3.80;99.90;;;;;;5088214;28;19912;-76
2023/03/09 10:37:18;;;;;;;;;;;3.80;99.90;;;;;;5087694;28;20357;-75
2023/03/09 10:39:45;;;;;;;;;;;3.80;99.90;;;;;;5087168;28;19962;-75
2023/03/09 10:42:16;;;;;;;;;;;3.90;99.90;;;;;;5089988;28;20360;-76
2023/03/09 10:44:45;;;;;;;;;;;3.90;99.90;;;;;;5107062;28;19922;-75
2023/03/09 10:47:11;;;;;;;;;;;3.90;99.90;;;;;;5107190;28;19922;-76
2023/03/09 10:49:36;;;;;;;;;;;4.00;99.90;;;;;;5108453;28;19907;-75
2023/03/09 10:52:03;;;;;;;;;;;4.00;99.90;;;;;;5085112;28;19939;-75
2023/03/09 10:54:31;;;;;;;;;;;4.00;99.90;;;;;;5103952;28;19994;-74
2023/03/09 10:56:57;;;;;;;;;;;4.00;99.90;;;;;;5108540;28;19912;-75
2023/03/09 10:59:25;;;;;;;;;;;4.00;99.90;;;;;;5108376;28;19923;-75
2023/03/09 11:01:51;;;;;;;;;;;4.00;99.90;;;;;;5107417;28;19920;-75
2023/03/09 11:04:23;;;;;;;;;;;4.00;99.90;;;;;;5107500;28;19911;-76
2023/03/09 11:07:12;;;;;;;;;;;4.10;99.90;;;;;;5107581;28;19947;-76
2023/03/09 11:09:43;;;;;;;;;;;4.10;99.90;;;;;;5087241;28;19912;-75
2023/03/09 11:12:20;;;;;;;;;;;4.10;99.90;;;;;;5086545;28;20364;-75
2023/03/09 11:14:46;;;;;;;;;;;4.10;99.90;;;;;;5094453;28;20375;-76
2023/03/09 11:17:38;;;;;;;;;;;4.10;99.90;;;;;;5087474;28;19912;-75
2023/03/09 11:20:12;;;;;;;;;;;4.10;99.90;;;;;;5086606;28;19916;-75
2023/03/09 11:22:45;;;;;;;;;;;4.10;99.90;;;;;;5090678;28;20126;-75
2023/03/09 11:25:17;;;;;;;;;;;4.10;99.90;;;;;;5108173;28;20008;-75
2023/03/09 11:27:47;;;;;;;;;;;4.10;99.90;;;;;;5106861;28;19980;-76
2023/03/09 11:30:16;;;;;;;;;;;4.10;99.90;;;;;;5108224;28;19912;-75
2023/03/09 11:32:42;;;;;;;;;;;4.10;99.90;;;;;;5106162;28;19916;-76
2023/03/09 11:35:17;;;;;;;;;;;4.00;99.90;;;;;;5107941;28;19923;-75
2023/03/09 11:37:51;;;;;;;;;;;4.10;99.90;;;;;;5106654;28;20007;-75
2023/03/09 11:40:18;;;;;;;;;;;4.10;99.90;;;;;;5090945;28;19908;-75
2023/03/09 11:42:49;;;;;;;;;;;4.00;99.90;;;;;;5089200;28;19919;-75
2023/03/09 11:45:17;;;;;;;;;;;4.00;99.90;;;;;;5107839;28;19911;-75
2023/03/09 11:47:44;;;;;;;;;;;4.10;99.90;;;;;;5093848;28;20000;-75
2023/03/09 11:50:15;;;;;;;;;;;4.10;99.90;;;;;;5087469;28;19912;-75
2023/03/09 11:52:50;;;;;;;;;;;4.10;99.90;;;;;;5074986;28;20304;-75
2023/03/09 11:55:18;;;;;;;;;;;4.20;99.90;;;;;;5107157;28;19918;-75
2023/03/09 11:57:46;;;;;;;;;;;4.20;99.90;;;;;;5108343;28;19911;-75
2023/03/09 12:00:13;;;;;;;;;;;4.30;99.90;;;;;;5107493;28;19915;-75
2023/03/09 12:03:00;;;;;;;;;;;4.30;99.90;;;;;;5108064;28;19927;-75
2023/03/09 12:05:28;;;;;;;;;;;4.30;99.90;;;;;;5109363;28;20559;-75
2023/03/09 12:07:56;;;;;;;;;;;4.30;99.90;;;;;;5091398;28;19916;-75
2023/03/09 12:10:25;;;;;;;;;;;4.30;99.90;;;;;;5089241;28;19908;-76
2023/03/09 12:13:12;;;;;;;;;;;4.30;99.90;;;;;;5073325;28;20316;-75
2023/03/09 12:15:41;;;;;;;;;;;4.30;99.90;;;;;;5087336;28;19920;-76
2023/03/09 12:18:15;;;;;;;;;;;4.30;99.90;;;;;;5092105;28;20373;-75
2023/03/09 12:20:41;;;;;;;;;;;4.30;99.90;;;;;;5100288;28;19922;-75
2023/03/09 12:23:25;;;;;;;;;;;4.20;99.90;;;;;;5098381;28;19912;-75
2023/03/09 12:25:56;;;;;;;;;;;4.20;99.90;;;;;;5111429;28;19946;-75
2023/03/09 12:28:21;;;;;;;;;;;4.30;99.90;;;;;;5111431;28;19943;-75
2023/03/09 12:30:52;;;;;;;;;;;4.30;99.90;;;;;;5110534;28;19974;-75
2023/03/09 12:33:37;;;;;;;;;;;4.30;99.90;;;;;;5111095;28;19916;-75
2023/03/09 12:36:03;;;;;;;;;;;4.20;99.90;;;;;;5110842;28;20291;-75
2023/03/09 12:38:29;;;;;;;;;;;4.20;99.90;;;;;;5107924;28;19990;-75
2023/03/09 12:40:54;;;;;;;;;;;4.20;99.90;;;;;;5097734;28;20387;-75
2023/03/09 12:43:21;;;;;;;;;;;4.30;99.90;;;;;;5090606;28;19923;-75
2023/03/09 12:45:47;;;;;;;;;;;4.30;99.90;;;;;;5090660;28;19912;-75
2023/03/09 12:48:24;;;;;;;;;;;4.30;99.90;;;;;;5101328;28;19915;-75
2023/03/09 12:50:59;;;;;;;;;;;4.30;99.90;;;;;;5104931;28;19916;-75
2023/03/09 12:53:26;;;;;;;;;;;4.40;99.90;;;;;;5097192;28;19965;-75
2023/03/09 12:55:53;;;;;;;;;;;4.40;99.90;;;;;;5110761;28;19912;-75
2023/03/09 12:58:21;;;;;;;;;;;4.40;99.90;;;;;;5110056;28;19976;-75
2023/03/09 13:00:49;;;;;;;;;;;4.40;99.90;;;;;;5108956;28;19961;-75
2023/03/09 13:03:17;;;;;;;;;;;4.40;99.90;;;;;;5110385;28;19916;-75
2023/03/09 13:05:48;;;;;;;;;;;4.40;99.90;;;;;;5110184;27;19912;-75
2023/03/09 13:08:16;;;;;;;;;;;4.50;99.90;;;;;;5100394;28;19923;-75
2023/03/09 13:10:42;;;;;;;;;;;4.50;99.90;;;;;;5069911;28;20021;-75
2023/03/09 13:13:26;;;;;;;;;;;4.50;99.90;;;;;;5069777;28;20393;-74
2023/03/09 13:16:11;;;;;;;;;;;4.50;99.90;;;;;;5089595;28;19919;-75
2023/03/09 13:18:37;;;;;;;;;;;4.50;99.90;;;;;;5101282;28;19915;-75
2023/03/09 13:21:21;;;;;;;;;;;4.50;99.90;;;;;;5109829;28;20410;-75
2023/03/09 13:23:47;;;;;;;;;;;4.50;99.90;;;;;;5108406;28;20526;-74
2023/03/09 13:26:13;;;;;;;;;;;4.50;99.90;;;;;;5109989;28;19916;-74
2023/03/09 13:28:40;;;;;;;;;;;4.50;99.90;;;;;;5109429;28;20315;-75
2023/03/09 13:31:16;;;;;;;;;;;4.50;99.90;;;;;;5108344;28;20330;-75
2023/03/09 13:33:42;;;;;;;;;;;4.40;99.90;;;;;;5109408;28;20372;-74
2023/03/09 13:36:13;;;;;;;;;;;4.40;99.90;;;;;;5108487;28;19933;-74
2023/03/09 13:38:39;;;;;;;;;;;4.40;99.90;;;;;;5100153;28;19912;-74
2023/03/09 13:41:06;;;;;;;;;;;4.40;99.90;;;;;;5100382;28;20084;-74
2023/03/09 13:43:33;;;;;;;;;;;4.40;99.90;;;;;;5098383;28;19919;-75
2023/03/09 13:46:06;;;;;;;;;;;4.40;99.90;;;;;;5098447;27;19940;-75
2023/03/09 13:48:40;;;;;;;;;;;4.40;99.90;;;;;;5096822;28;20532;-75
2023/03/09 13:51:11;;;;;;;;;;;4.40;99.90;;;;;;5097008;28;19912;-75
2023/03/09 13:53:36;;;;;;;;;;;4.40;99.90;;;;;;5105245;28;19919;-74
2023/03/09 13:56:05;;;;;;;;;;;4.40;99.90;;;;;;5108708;28;19916;-75
2023/03/09 13:58:41;;;;;;;;;;;4.40;99.90;;;;;;5108084;28;20411;-74
2023/03/09 14:01:17;;;;;;;;;;;4.40;99.90;;;;;;5092676;28;19916;-74
2023/03/09 14:03:47;;;;;;;;;;;4.40;99.90;;;;;;5095271;28;19918;-75
2023/03/09 14:06:12;;;;;;;;;;;4.40;99.90;;;;;;5097129;28;20493;-75
2023/03/09 14:08:43;;;;;;;;;;;4.40;99.90;;;;;;5096163;28;19912;-75
2023/03/09 14:11:15;;;;;;;;;;;4.40;99.90;;;;;;5098435;28;19912;-75
2023/03/09 14:13:47;;;;;;;;;;;4.40;99.90;;;;;;5095700;28;19920;-75
2023/03/09 14:16:14;;;;;;;;;;;4.40;99.90;;;;;;5093883;28;19991;-76
2023/03/09 14:18:41;;;;;;;;;;;4.40;99.90;;;;;;5097730;28;19938;-75
2023/03/09 14:21:27;;;;;;;;;;;4.40;99.90;;;;;;5094594;28;20003;-75
2023/03/09 14:23:54;;;;;;;;;;;4.40;99.90;;;;;;5103252;28;19920;-75
2023/03/09 14:26:24;;;;;;;;;;;4.40;99.90;;;;;;5107237;28;19916;-74
2023/03/09 14:29:08;;;;;;;;;;;4.40;99.90;;;;;;5105154;28;20022;-74
2023/03/09 14:31:34;;;;;;;;;;;4.40;99.90;;;;;;5067460;28;19962;-75
2023/03/09 14:34:22;;;;;;;;;;;4.40;99.90;;;;;;5067052;28;20297;-75